createdAt,value
2023-05-05T00:02:01.011Z,11.2
2023-05-05T00:03:01.084Z,11.1
2023-05-05T00:05:00.973Z,11.3
2023-05-05T00:06:01.067Z,11.2
2023-05-05T00:08:01.028Z,11
2023-05-05T00:13:01.050Z,11.1
2023-05-05T00:15:01.082Z,11.1
2023-05-05T00:17:00.993Z,11.2
2023-05-05T00:18:01.111Z,10.9
2023-05-05T00:21:01.062Z,11
2023-05-05T00:25:01.000Z,10.9
2023-05-05T00:27:00.963Z,11
2023-05-05T00:28:00.987Z,10.8
2023-05-05T00:29:00.982Z,11.1
2023-05-05T00:30:01.179Z,11
2023-05-05T00:33:01.007Z,11.1
2023-05-05T00:34:00.959Z,11
2023-05-05T00:36:01.021Z,11.2
2023-05-05T00:38:00.977Z,11
2023-05-05T00:41:00.964Z,11.2
2023-05-05T00:43:00.961Z,11.1
2023-05-05T00:44:01.049Z,11
2023-05-05T00:46:00.990Z,11.1
2023-05-05T00:48:01.225Z,11.1
2023-05-05T00:50:00.969Z,11
2023-05-05T00:51:01.043Z,11.1
2023-05-05T00:53:00.953Z,11
2023-05-05T00:54:01.041Z,11.1
2023-05-05T00:58:01.065Z,11
2023-05-05T01:01:01.735Z,11.3
2023-05-05T01:04:01.084Z,11.1
2023-05-05T01:06:01.039Z,11
2023-05-05T01:08:01.028Z,11.2
2023-05-05T01:09:01.062Z,11.1
2023-05-05T01:11:00.946Z,11.1
2023-05-05T01:13:00.978Z,11
2023-05-05T01:17:00.935Z,11.1
2023-05-05T01:18:01.140Z,11
2023-05-05T01:21:00.965Z,11.2
2023-05-05T01:23:00.969Z,11
2023-05-05T01:26:00.938Z,11.1
2023-05-05T01:27:00.994Z,11
2023-05-05T01:29:00.942Z,11.1
2023-05-05T01:31:00.946Z,11
2023-05-05T01:32:01.011Z,11.1
2023-05-05T01:35:00.930Z,11
2023-05-05T01:36:00.982Z,11.2
2023-05-05T01:38:00.974Z,11.1
2023-05-05T01:39:01.064Z,10.9
2023-05-05T01:41:01.021Z,10.9
2023-05-05T01:42:01.253Z,11
2023-05-05T01:44:00.954Z,11.2
2023-05-05T01:45:01.026Z,11
2023-05-05T01:48:00.969Z,10.9
2023-05-05T01:51:00.945Z,10.9
2023-05-05T01:52:00.991Z,11
2023-05-05T01:55:00.977Z,11
2023-05-05T01:56:01.032Z,10.9
2023-05-05T01:59:00.982Z,11
2023-05-05T02:00:01.123Z,10.9
2023-05-05T02:02:01.083Z,10.8
2023-05-05T02:04:01.000Z,10.9
2023-05-05T02:06:01.036Z,11
2023-05-05T02:07:01.024Z,10.8
2023-05-05T02:09:01.160Z,11
2023-05-05T02:11:00.991Z,11
2023-05-05T02:12:01.332Z,10.9
2023-05-05T02:16:01.071Z,11
2023-05-05T02:31:01.352Z,10.9
2023-05-05T02:37:00.985Z,11
2023-05-05T02:40:00.967Z,10.8
2023-05-05T02:42:01.000Z,10.9
2023-05-05T02:44:00.981Z,11
2023-05-05T02:45:01.178Z,10.9
2023-05-05T02:47:00.934Z,10.8
2023-05-05T02:49:00.973Z,10.7
2023-05-05T02:51:01.015Z,10.8
2023-05-05T02:53:00.958Z,10.8
2023-05-05T02:55:00.920Z,10.7
2023-05-05T02:56:00.955Z,10.8
2023-05-05T02:59:00.930Z,10.6
2023-05-05T03:01:00.977Z,10.7
2023-05-05T03:02:01.480Z,10.6
2023-05-05T03:04:00.933Z,10.8
2023-05-05T03:06:01.059Z,10.6
2023-05-05T03:08:00.974Z,10.5
2023-05-05T03:13:01.005Z,10.4
2023-05-05T03:14:00.983Z,10.5
2023-05-05T03:17:00.920Z,10.4
2023-05-05T03:18:01.026Z,10.5
2023-05-05T03:21:00.959Z,10.4
2023-05-05T03:22:00.992Z,10.6
2023-05-05T03:26:00.950Z,10.4
2023-05-05T03:33:00.952Z,10.4
2023-05-05T03:34:00.946Z,10.5
2023-05-05T03:35:01.024Z,10.4
2023-05-05T03:37:00.927Z,10.3
2023-05-05T03:38:00.946Z,10.4
2023-05-05T03:41:00.957Z,10.3
2023-05-05T03:42:00.973Z,10.4
2023-05-05T03:47:00.942Z,10.5
2023-05-05T03:48:01.036Z,10.6
2023-05-05T03:50:00.962Z,10.5
2023-05-05T03:53:00.933Z,10.6
2023-05-05T03:54:01.014Z,10.5
2023-05-05T03:56:00.975Z,10.6
2023-05-05T03:57:00.962Z,10.5
2023-05-05T03:58:00.991Z,10.7
2023-05-05T04:00:01.256Z,10.5
2023-05-05T04:05:00.948Z,10.7
2023-05-05T04:08:01.004Z,10.6
2023-05-05T04:09:01.001Z,10.7
2023-05-05T04:13:01.016Z,10.8
2023-05-05T04:15:01.155Z,10.9
2023-05-05T04:19:00.944Z,10.9
2023-05-05T04:20:01.002Z,11
2023-05-05T04:22:00.945Z,11.1
2023-05-05T04:25:00.983Z,11.3
2023-05-05T04:27:00.980Z,11.2
2023-05-05T04:29:00.975Z,11.4
2023-05-05T04:31:01.046Z,11.5
2023-05-05T04:34:00.951Z,11.9
2023-05-05T04:36:00.979Z,12.1
2023-05-05T04:38:00.985Z,12.3
2023-05-05T04:39:01.191Z,12.2
2023-05-05T04:43:00.984Z,12.2
2023-05-05T04:44:01.046Z,12.3
2023-05-05T04:46:00.963Z,12.3
2023-05-05T04:48:01.032Z,12.4
2023-05-05T04:52:00.990Z,12.2
2023-05-05T04:54:01.029Z,12.4
2023-05-05T04:56:01.004Z,12.8
2023-05-05T04:57:01.018Z,13
2023-05-05T04:59:00.932Z,13.1
2023-05-05T05:00:01.178Z,13.3
2023-05-05T05:01:01.152Z,13.5
2023-05-05T05:04:01.107Z,14.3
2023-05-05T05:06:01.102Z,14.8
2023-05-05T05:07:01.121Z,15
2023-05-05T05:09:01.158Z,15.4
2023-05-05T05:10:01.165Z,15.5
2023-05-05T05:11:01.143Z,15.8
2023-05-05T05:13:01.120Z,16.4
2023-05-05T05:14:01.177Z,16.8
2023-05-05T05:16:01.158Z,17.5
2023-05-05T05:17:01.066Z,18
2023-05-05T05:19:01.714Z,18.4
2023-05-05T05:21:01.085Z,18.9
2023-05-05T05:22:01.150Z,19.2
2023-05-05T05:24:01.071Z,19.4
2023-05-05T05:25:01.204Z,19.6
2023-05-05T05:26:01.388Z,19.7
2023-05-05T05:30:01.209Z,20.6
2023-05-05T05:32:01.084Z,20.4
2023-05-05T05:34:01.152Z,20.2
2023-05-05T05:36:01.131Z,20
2023-05-05T05:37:01.202Z,20.2
2023-05-05T05:39:01.207Z,20.3
2023-05-05T05:41:01.151Z,20.5
2023-05-05T05:44:01.132Z,20.8
2023-05-05T05:46:01.069Z,20.6
2023-05-05T05:48:01.007Z,20.3
2023-05-05T05:49:01.063Z,20.1
2023-05-05T05:50:01.125Z,19.9
2023-05-05T05:52:01.093Z,19.2
2023-05-05T05:53:01.185Z,19
2023-05-05T05:55:01.034Z,18.7
2023-05-05T05:57:01.074Z,18.3
2023-05-05T05:58:01.093Z,18.1
2023-05-05T06:00:02.206Z,17.9
2023-05-05T06:03:01.155Z,17.6
2023-05-05T06:04:01.158Z,17.5
2023-05-05T06:06:01.069Z,17.3
2023-05-05T06:07:01.107Z,17.4
2023-05-05T06:09:01.148Z,17.3
2023-05-05T06:13:01.156Z,17
2023-05-05T06:17:01.193Z,16.9
2023-05-05T06:19:01.255Z,17
2023-05-05T06:21:01.018Z,17.1
2023-05-05T06:22:01.047Z,17
2023-05-05T06:24:01.015Z,17.1
2023-05-05T06:32:01.298Z,17.2
2023-05-05T06:36:01.165Z,17.4
2023-05-05T06:37:01.214Z,17.5
2023-05-05T06:38:01.290Z,17.6
2023-05-05T06:41:01.096Z,17.7
2023-05-05T06:42:01.118Z,17.8
2023-05-05T06:46:01.127Z,18
2023-05-05T06:47:01.249Z,17.9
2023-05-05T06:50:01.207Z,18.2
2023-05-05T06:53:01.136Z,18.4
2023-05-05T06:54:01.229Z,18.5
2023-05-05T06:56:01.231Z,18.7
2023-05-05T06:57:01.312Z,18.8
2023-05-05T06:59:01.150Z,19.1
2023-05-05T07:01:01.300Z,19.2
2023-05-05T07:03:01.139Z,19.3
2023-05-05T07:04:02.096Z,19.2
2023-05-05T07:06:00.950Z,19.2
2023-05-05T07:07:01.038Z,19.3
2023-05-05T07:12:00.984Z,19.2
2023-05-05T07:13:01.129Z,19.1
2023-05-05T07:14:01.022Z,19.3
2023-05-05T07:15:06.976Z,19.1
2023-05-05T07:17:01.122Z,19.1
2023-05-05T07:18:01.279Z,19.2
2023-05-05T07:20:00.998Z,19.1
2023-05-05T07:23:00.937Z,19.3
2023-05-05T07:25:01.099Z,19.1
2023-05-05T07:27:01.055Z,19.3
2023-05-05T07:29:01.182Z,19.1
2023-05-05T07:31:01.083Z,19.3
2023-05-05T07:33:01.035Z,19
2023-05-05T07:35:01.017Z,19.2
2023-05-05T07:38:00.968Z,19.4
2023-05-05T07:42:01.002Z,19.6
2023-05-05T07:43:01.029Z,19.5
2023-05-05T07:45:00.950Z,19.6
2023-05-05T07:46:00.959Z,19.7
2023-05-05T07:47:01.191Z,19.5
2023-05-05T07:52:00.993Z,19.8
2023-05-05T07:57:01.008Z,19.6
2023-05-05T07:59:01.052Z,19.8
2023-05-05T08:01:01.188Z,19.9
2023-05-05T08:03:01.188Z,20
2023-05-05T08:05:01.025Z,20.1
2023-05-05T08:07:01.029Z,20.1
2023-05-05T08:10:00.953Z,20.2
2023-05-05T08:11:01.005Z,20.4
2023-05-05T08:13:01.025Z,20.3
2023-05-05T08:15:01.243Z,20.3
2023-05-05T08:17:00.994Z,20.1
2023-05-05T08:19:00.992Z,20.2
2023-05-05T08:22:01.445Z,20.4
2023-05-05T08:24:01.008Z,20.6
2023-05-05T08:25:01.014Z,20.4
2023-05-05T08:27:01.000Z,20.4
2023-05-05T08:29:01.000Z,20.4
2023-05-05T08:31:01.314Z,20.5
2023-05-05T08:33:01.238Z,20.6
2023-05-05T08:34:01.471Z,20.5
2023-05-05T08:35:01.544Z,20.6
2023-05-05T08:42:00.984Z,20.7
2023-05-05T08:44:00.991Z,20.8
2023-05-05T08:46:00.978Z,21
2023-05-05T08:47:01.150Z,21.1
2023-05-05T08:49:01.062Z,21
2023-05-05T08:52:00.985Z,21.2
2023-05-05T08:53:01.044Z,21.3
2023-05-05T08:57:01.024Z,21.4
2023-05-05T08:59:01.041Z,21.5
2023-05-05T09:03:01.247Z,21.7
2023-05-05T09:05:01.284Z,21.9
2023-05-05T09:07:01.174Z,22.1
2023-05-05T09:10:00.961Z,22.4
2023-05-05T09:11:01.002Z,22.6
2023-05-05T09:13:01.128Z,22.7
2023-05-05T09:15:01.456Z,22.7
2023-05-05T09:17:01.081Z,22.3
2023-05-05T09:20:00.991Z,22.4
2023-05-05T09:21:01.022Z,22.6
2023-05-05T09:23:01.016Z,22.5
2023-05-05T09:25:01.050Z,22.7
2023-05-05T09:27:01.110Z,22.3
2023-05-05T09:29:01.055Z,22.1
2023-05-05T09:30:01.114Z,22
2023-05-05T09:32:00.994Z,22
2023-05-05T09:33:01.031Z,21.8
2023-05-05T09:34:01.421Z,21.9
2023-05-05T09:36:00.995Z,21.9
2023-05-05T09:37:01.096Z,21.8
2023-05-05T09:39:01.189Z,22
2023-05-05T09:41:01.042Z,22.1
2023-05-05T09:43:01.064Z,22.1
2023-05-05T09:47:01.169Z,22.2
2023-05-05T09:49:01.034Z,22.2
2023-05-05T09:50:01.077Z,22.3
2023-05-05T09:51:01.149Z,22.4
2023-05-05T09:53:01.023Z,22.3
2023-05-05T09:55:01.042Z,22.5
2023-05-05T09:57:00.988Z,22.6
2023-05-05T10:00:01.271Z,22.6
2023-05-05T10:03:01.045Z,22.5
2023-05-05T10:05:02.366Z,22.6
2023-05-05T10:06:01.200Z,22.7
2023-05-05T10:08:00.974Z,22.8
2023-05-05T10:10:00.994Z,23
2023-05-05T10:11:01.037Z,23.3
2023-05-05T10:14:00.953Z,23.4
2023-05-05T10:16:01.015Z,23.2
2023-05-05T10:17:00.987Z,23.1
2023-05-05T10:18:07.285Z,23.2
2023-05-05T10:21:01.064Z,23.5
2023-05-05T10:25:01.122Z,23.5
2023-05-05T10:28:01.005Z,23.4
2023-05-05T10:29:01.210Z,23.5
2023-05-05T10:31:01.026Z,23.7
2023-05-05T10:36:00.976Z,24
2023-05-05T10:37:01.011Z,24.1
2023-05-05T10:38:01.164Z,24.2
2023-05-05T10:39:01.241Z,24.4
2023-05-05T10:41:01.103Z,24.6
2023-05-05T10:42:01.266Z,24.7
2023-05-05T10:45:01.168Z,24.4
2023-05-05T10:47:01.127Z,24.2
2023-05-05T10:48:01.127Z,24.1
2023-05-05T10:50:00.978Z,23.7
2023-05-05T10:52:00.985Z,23.5
2023-05-05T10:54:01.044Z,23.6
2023-05-05T10:57:01.203Z,23.9
2023-05-05T10:59:01.176Z,24
2023-05-05T11:03:01.133Z,24.4
2023-05-05T11:06:01.273Z,24.7
2023-05-05T11:08:00.989Z,24.9
2023-05-05T11:10:00.985Z,24.8
2023-05-05T11:11:01.026Z,24.7
2023-05-05T11:14:00.986Z,24.8
2023-05-05T11:15:01.117Z,24.6
2023-05-05T11:17:01.117Z,24.5
2023-05-05T11:20:00.990Z,24.3
2023-05-05T11:21:01.103Z,24.4
2023-05-05T11:23:01.046Z,24.6
2023-05-05T11:26:01.020Z,24.5
2023-05-05T11:27:01.073Z,24.4
2023-05-05T11:28:01.035Z,24.5
2023-05-05T11:29:01.135Z,24.4
2023-05-05T11:30:01.284Z,24.5
2023-05-05T11:32:01.028Z,24.2
2023-05-05T11:33:01.108Z,24.3
2023-05-05T11:36:02.800Z,24
2023-05-05T11:37:01.127Z,24.1
2023-05-05T11:41:01.178Z,23.8
2023-05-05T11:43:01.096Z,23.8
2023-05-05T11:45:01.175Z,23.9
2023-05-05T11:47:01.195Z,24.1
2023-05-05T11:48:01.313Z,23.9
2023-05-05T11:50:01.166Z,24.2
2023-05-05T11:52:01.229Z,24.1
2023-05-05T11:54:01.224Z,24.2
2023-05-05T11:56:01.036Z,24.1
2023-05-05T11:58:00.936Z,24.3
2023-05-05T11:59:01.039Z,24.4
2023-05-05T12:00:01.150Z,24.3
2023-05-05T12:02:00.969Z,24.3
2023-05-05T12:04:01.187Z,24.4
2023-05-05T12:05:01.531Z,24.2
2023-05-05T12:07:01.256Z,24
2023-05-05T12:11:01.057Z,24.2
2023-05-05T12:12:01.133Z,24.1
2023-05-05T12:13:01.268Z,24.2
2023-05-05T12:16:01.042Z,24.2
2023-05-05T12:18:02.926Z,24.3
2023-05-05T12:20:01.143Z,24.4
2023-05-05T12:22:01.021Z,24.5
2023-05-05T12:23:01.067Z,24.7
2023-05-05T12:25:01.012Z,24.4
2023-05-05T12:27:00.993Z,24.5
2023-05-05T12:28:01.146Z,24.6
2023-05-05T12:31:01.249Z,24.3
2023-05-05T12:33:01.004Z,24.4
2023-05-05T12:36:00.988Z,24.5
2023-05-05T12:37:01.091Z,24.6
2023-05-05T12:39:01.285Z,24.7
2023-05-05T12:41:01.062Z,25.2
2023-05-05T12:45:01.045Z,25.3
2023-05-05T12:49:01.025Z,25.5
2023-05-05T12:51:01.024Z,25.8
2023-05-05T12:53:01.145Z,26.1
2023-05-05T12:56:01.004Z,26.2
2023-05-05T12:57:01.057Z,26.1
2023-05-05T12:59:01.033Z,26.2
2023-05-05T13:00:01.269Z,26.1
2023-05-05T13:02:01.072Z,26.2
2023-05-05T13:03:01.099Z,26.3
2023-05-05T13:05:01.028Z,26.4
2023-05-05T13:06:01.057Z,26.3
2023-05-05T13:07:01.260Z,26.2
2023-05-05T13:08:01.188Z,26.1
2023-05-05T13:10:00.949Z,26.1
2023-05-05T13:11:01.060Z,26.2
2023-05-05T13:13:01.003Z,26.4
2023-05-05T13:14:01.038Z,26.5
2023-05-05T13:15:01.105Z,26.7
2023-05-05T13:17:01.039Z,26.9
2023-05-05T13:19:01.011Z,27
2023-05-05T13:21:01.063Z,26.7
2023-05-05T13:23:01.141Z,26.4
2023-05-05T13:28:01.010Z,26.3
2023-05-05T13:29:01.068Z,26.2
2023-05-05T13:30:01.142Z,26.1
2023-05-05T13:32:01.011Z,25.9
2023-05-05T13:33:01.042Z,25.7
2023-05-05T13:35:01.017Z,25.3
2023-05-05T13:37:01.281Z,25.1
2023-05-05T13:39:01.039Z,24.9
2023-05-05T13:41:01.023Z,24.6
2023-05-05T13:43:01.072Z,24.5
2023-05-05T13:45:01.228Z,24.1
2023-05-05T13:46:12.472Z,24.2
2023-05-05T13:48:01.097Z,23.9
2023-05-05T13:49:01.140Z,23.8
2023-05-05T13:50:01.281Z,23.9
2023-05-05T13:53:01.159Z,24.1
2023-05-05T13:55:01.021Z,23.9
2023-05-05T13:57:01.044Z,23.8
2023-05-05T14:02:00.986Z,23.7
2023-05-05T14:04:02.899Z,23.7
2023-05-05T14:05:01.042Z,23.6
2023-05-05T14:07:01.240Z,23.4
2023-05-05T14:13:01.165Z,23.7
2023-05-05T14:15:01.265Z,23.8
2023-05-05T14:18:01.093Z,23.9
2023-05-05T14:19:01.078Z,24.1
2023-05-05T14:21:01.175Z,24.2
2023-05-05T14:23:01.012Z,24.3
2023-05-05T14:25:01.002Z,24.1
2023-05-05T14:27:01.063Z,24.2
2023-05-05T14:29:01.025Z,24
2023-05-05T14:32:00.997Z,23.8
2023-05-05T14:33:01.047Z,23.9
2023-05-05T14:34:01.015Z,24
2023-05-05T14:35:01.045Z,23.8
2023-05-05T14:38:01.046Z,23.7
2023-05-05T14:41:00.991Z,23.8
2023-05-05T14:43:01.019Z,23.9
2023-05-05T14:46:01.040Z,23.7
2023-05-05T14:47:00.997Z,23.6
2023-05-05T14:50:00.970Z,23.5
2023-05-05T14:52:00.948Z,23.7
2023-05-05T14:53:00.982Z,23.6
2023-05-05T14:55:01.016Z,23.7
2023-05-05T14:57:01.009Z,23.8
2023-05-05T15:00:01.040Z,23.9
2023-05-05T15:01:01.077Z,23.7
2023-05-05T15:03:01.083Z,23.6
2023-05-05T15:07:01.063Z,23.6
2023-05-05T15:09:01.020Z,23.4
2023-05-05T15:11:01.029Z,23.5
2023-05-05T15:13:01.028Z,23.2
2023-05-05T15:14:01.026Z,23
2023-05-05T15:15:01.055Z,23.1
2023-05-05T15:16:01.150Z,23
2023-05-05T15:17:01.045Z,23.1
2023-05-05T15:19:00.996Z,23
2023-05-05T15:21:00.995Z,22.5
2023-05-05T15:22:01.012Z,22.6
2023-05-05T15:26:01.001Z,22.5
2023-05-05T15:29:01.102Z,22.3
2023-05-05T15:35:01.001Z,22.3
2023-05-05T15:37:01.022Z,22.5
2023-05-05T15:39:01.032Z,22.2
2023-05-05T15:42:01.201Z,22
2023-05-05T15:44:00.975Z,22.1
2023-05-05T15:45:01.117Z,21.9
2023-05-05T15:47:01.206Z,21.9
2023-05-05T15:49:01.058Z,22
2023-05-05T15:51:00.993Z,22.2
2023-05-05T15:53:01.053Z,22
2023-05-05T15:56:00.939Z,21.9
2023-05-05T15:57:00.997Z,21.6
2023-05-05T15:58:01.039Z,21.7
2023-05-05T15:59:01.020Z,21.6
2023-05-05T16:01:01.060Z,21.5
2023-05-05T16:03:01.071Z,21.4
2023-05-05T16:06:00.961Z,21.3
2023-05-05T16:07:01.010Z,21.5
2023-05-05T16:11:01.005Z,21.2
2023-05-05T16:13:01.070Z,21.1
2023-05-05T16:15:01.187Z,21.1
2023-05-05T16:17:01.174Z,20.9
2023-05-05T16:19:01.023Z,21
2023-05-05T16:20:01.026Z,20.6
2023-05-05T16:22:00.946Z,20.4
2023-05-05T16:23:01.038Z,20.5
2023-05-05T16:26:00.986Z,20.1
2023-05-05T16:28:00.995Z,20
2023-05-05T16:29:01.263Z,19.9
2023-05-05T16:31:01.025Z,19.8
2023-05-05T16:33:01.032Z,19.8
2023-05-05T16:35:01.009Z,19.5
2023-05-05T16:37:01.042Z,19.2
2023-05-05T16:39:01.148Z,19.1
2023-05-05T16:41:01.061Z,19.2
2023-05-05T16:43:00.996Z,19.1
2023-05-05T16:44:01.035Z,19
2023-05-05T16:46:01.050Z,18.9
2023-05-05T16:48:01.002Z,18.8
2023-05-05T16:49:01.091Z,18.9
2023-05-05T16:52:00.953Z,18.7
2023-05-05T16:53:01.019Z,18.6
2023-05-05T16:56:00.952Z,18.5
2023-05-05T16:58:01.050Z,18.6
2023-05-05T17:03:01.059Z,18.6
2023-05-05T17:06:01.007Z,18.4
2023-05-05T17:08:00.990Z,18.3
2023-05-05T17:09:01.052Z,18.5
2023-05-05T17:12:00.963Z,18.3
2023-05-05T17:13:01.021Z,18.2
2023-05-05T17:15:01.117Z,18.4
2023-05-05T17:18:01.035Z,18.2
2023-05-05T17:20:00.981Z,18.1
2023-05-05T17:22:01.002Z,18.2
2023-05-05T17:23:01.017Z,18.3
2023-05-05T17:25:01.012Z,18.2
2023-05-05T17:28:00.966Z,18
2023-05-05T17:29:00.990Z,17.9
2023-05-05T17:30:01.128Z,18
2023-05-05T17:34:00.954Z,17.9
2023-05-05T17:36:00.956Z,17.7
2023-05-05T17:38:01.022Z,17.6
2023-05-05T17:39:01.215Z,17.7
2023-05-05T17:41:01.054Z,17.9
2023-05-05T17:43:01.035Z,17.5
2023-05-05T17:45:01.093Z,17.5
2023-05-05T17:47:01.056Z,17.6
2023-05-05T17:51:00.985Z,17.6
2023-05-05T17:53:01.057Z,17.3
2023-05-05T17:55:01.002Z,17.5
2023-05-05T17:58:00.948Z,17.4
2023-05-05T17:59:01.018Z,17.3
2023-05-05T18:01:01.075Z,17.2
2023-05-05T18:04:00.961Z,17
2023-05-05T18:07:01.029Z,17.2
2023-05-05T18:09:01.041Z,17.1
2023-05-05T18:11:00.998Z,17.1
2023-05-05T18:15:01.272Z,17.2
2023-05-05T18:19:00.982Z,17.2
2023-05-05T18:20:01.191Z,17.1
2023-05-05T18:24:07.939Z,17.1
2023-05-05T18:26:00.987Z,17
2023-05-05T18:28:00.995Z,16.8
2023-05-05T18:31:01.082Z,16.9
2023-05-05T18:33:01.029Z,16.9
2023-05-05T18:37:01.080Z,16.9
2023-05-05T18:39:01.098Z,16.8
2023-05-05T18:41:01.069Z,17
2023-05-05T18:43:01.032Z,16.6
2023-05-05T18:46:00.950Z,16.8
2023-05-05T18:49:01.050Z,16.9
2023-05-05T18:50:01.041Z,16.6
2023-05-05T18:52:01.036Z,16.8
2023-05-05T18:53:01.052Z,16.7
2023-05-05T18:56:00.979Z,16.6
2023-05-05T18:57:01.011Z,16.8
2023-05-05T18:59:01.016Z,16.8
2023-05-05T19:00:01.034Z,16.6
2023-05-05T19:01:01.024Z,16.5
2023-05-05T19:05:01.114Z,16.6
2023-05-05T19:07:00.987Z,16.4
2023-05-05T19:09:01.405Z,16.5
2023-05-05T19:11:01.113Z,16.3
2023-05-05T19:13:01.068Z,16.1
2023-05-05T19:15:01.059Z,16.2
2023-05-05T19:17:01.100Z,16.3
2023-05-05T19:20:01.009Z,16.3
2023-05-05T19:21:01.028Z,16.2
2023-05-05T19:24:00.965Z,16.2
2023-05-05T19:28:01.127Z,16.1
2023-05-05T19:34:00.942Z,16
2023-05-05T19:37:01.023Z,15.9
2023-05-05T19:38:01.121Z,16
2023-05-05T19:39:01.339Z,15.9
2023-05-05T19:40:01.391Z,16
2023-05-05T19:42:01.186Z,15.9
2023-05-05T19:45:01.205Z,16
2023-05-05T19:47:01.170Z,15.7
2023-05-05T19:48:01.237Z,15.9
2023-05-05T19:52:01.126Z,16
2023-05-05T19:54:01.165Z,15.8
2023-05-05T19:56:01.170Z,15.9
2023-05-05T19:59:01.282Z,15.8
2023-05-05T20:03:01.147Z,15.9
2023-05-05T20:08:00.991Z,15.7
2023-05-05T20:09:01.088Z,15.8
2023-05-05T20:11:00.937Z,15.8
2023-05-05T20:13:01.005Z,15.7
2023-05-05T20:14:01.010Z,15.6
2023-05-05T20:15:01.149Z,15.7
2023-05-05T20:17:01.015Z,15.6
2023-05-05T20:18:01.040Z,15.8
2023-05-05T20:20:00.979Z,15.7
2023-05-05T20:21:01.043Z,15.8
2023-05-05T20:24:01.058Z,15.8
2023-05-05T20:26:01.078Z,15.7
2023-05-05T20:28:00.996Z,15.6
2023-05-05T20:31:01.144Z,15.8
2023-05-05T20:33:01.077Z,15.8
2023-05-05T20:35:00.923Z,15.7
2023-05-05T20:36:00.956Z,15.8
2023-05-05T20:37:00.969Z,15.7
2023-05-05T20:40:00.968Z,15.6
2023-05-05T20:41:01.001Z,15.7
2023-05-05T20:44:00.938Z,15.8
2023-05-05T20:45:01.155Z,15.7
2023-05-05T20:48:01.131Z,15.7
2023-05-05T20:51:00.952Z,15.6
2023-05-05T20:54:01.243Z,15.7
2023-05-05T20:56:01.068Z,15.5
2023-05-05T20:59:00.957Z,15.4
2023-05-05T21:00:01.342Z,15.6
2023-05-05T21:02:01.139Z,15.4
2023-05-05T21:04:01.017Z,15.1
2023-05-05T21:06:00.947Z,15.1
2023-05-05T21:07:00.992Z,15.2
2023-05-05T21:08:01.385Z,15.3
2023-05-05T21:09:01.116Z,15.2
2023-05-05T21:12:00.934Z,15.3
2023-05-05T21:14:00.954Z,15.3
2023-05-05T21:15:00.968Z,15.2
2023-05-05T21:17:00.978Z,15.2
2023-05-05T21:22:00.972Z,15.3
2023-05-05T21:23:01.154Z,15
2023-05-05T21:26:01.078Z,15.1
2023-05-05T21:27:01.175Z,15.3
2023-05-05T21:29:01.118Z,15.2
2023-05-05T21:31:20.188Z,15.1
2023-05-05T21:35:01.089Z,15.1
2023-05-05T21:37:00.918Z,15.1
2023-05-05T21:38:00.957Z,15
2023-05-05T21:39:01.172Z,15.1
2023-05-05T21:41:01.028Z,15
2023-05-05T21:44:00.941Z,15.1
2023-05-05T21:45:01.308Z,15.2
2023-05-05T21:47:00.963Z,15
2023-05-05T21:48:01.001Z,14.9
2023-05-05T21:50:00.965Z,15.1
2023-05-05T21:52:00.942Z,14.8
2023-05-05T21:53:01.011Z,14.9
2023-05-05T21:55:01.004Z,14.8
2023-05-05T21:56:00.945Z,15
2023-05-05T21:57:01.016Z,14.9
2023-05-05T22:01:00.924Z,14.7
2023-05-05T22:02:01.155Z,14.8
2023-05-05T22:03:00.988Z,14.6
2023-05-05T22:05:00.984Z,14.8
2023-05-05T22:07:00.964Z,14.9
2023-05-05T22:08:00.934Z,14.8
2023-05-05T22:09:00.974Z,14.7
2023-05-05T22:13:01.033Z,14.6
2023-05-05T22:16:00.963Z,14.6
2023-05-05T22:18:01.010Z,14.7
2023-05-05T22:22:01.060Z,14.6
2023-05-05T22:24:01.137Z,14.4
2023-05-05T22:26:00.963Z,14.4
2023-05-05T22:28:00.994Z,14.4
2023-05-05T22:31:00.995Z,14.4
2023-05-05T22:32:01.015Z,14.5
2023-05-05T22:34:00.968Z,14.5
2023-05-05T22:36:01.055Z,14.3
2023-05-05T22:38:00.986Z,14.3
2023-05-05T22:39:01.098Z,14.2
2023-05-05T22:41:00.938Z,14.3
2023-05-05T22:44:00.944Z,14.2
2023-05-05T22:47:00.999Z,14.3
2023-05-05T22:48:00.997Z,14.1
2023-05-05T22:49:00.986Z,14.2
2023-05-05T22:50:01.004Z,14.1
2023-05-05T22:51:01.084Z,14.2
2023-05-05T22:54:01.038Z,14.2
2023-05-05T22:56:00.982Z,14.1
2023-05-05T22:57:00.984Z,14
2023-05-05T23:02:01.031Z,14.2
2023-05-05T23:03:01.018Z,14
2023-05-05T23:07:00.956Z,13.9
2023-05-05T23:09:00.970Z,13.8
2023-05-05T23:10:01.015Z,14
2023-05-05T23:12:00.972Z,13.9
2023-05-05T23:13:01.027Z,13.8
2023-05-05T23:14:00.995Z,13.9
2023-05-05T23:16:00.991Z,13.8
2023-05-05T23:17:01.067Z,13.9
2023-05-05T23:24:00.974Z,13.9
2023-05-05T23:26:01.064Z,13.8
2023-05-05T23:31:00.997Z,13.8
2023-05-05T23:32:00.941Z,13.7
2023-05-05T23:33:00.962Z,13.6
2023-05-05T23:34:00.985Z,13.7
2023-05-05T23:36:01.086Z,13.7
2023-05-05T23:38:00.955Z,13.6
2023-05-05T23:39:01.027Z,13.8
2023-05-05T23:42:00.971Z,13.7
2023-05-05T23:45:00.945Z,13.7
2023-05-05T23:47:00.942Z,13.7
2023-05-05T23:48:01.037Z,13.6
2023-05-05T23:51:00.942Z,13.7
2023-05-05T23:52:00.955Z,13.6
2023-05-05T23:54:01.040Z,13.7
2023-05-05T23:58:00.942Z,13.7
2023-05-05T23:59:00.973Z,13.6
